sensor_id;sensor_type;location;lat;lon;timestamp;temperature;humidity
55004;DHT22;40900;52.710;6.438;2023-04-23T00:00:00;9.20;99.90
55004;DHT22;40900;52.710;6.438;2023-04-23T00:02:26;9.20;99.90
55004;DHT22;40900;52.710;6.438;2023-04-23T00:04:56;9.20;99.90
55004;DHT22;40900;52.710;6.438;2023-04-23T00:07:26;9.20;99.90
55004;DHT22;40900;52.710;6.438;2023-04-23T00:09:56;9.10;99.90
55004;DHT22;40900;52.710;6.438;2023-04-23T00:12:23;9.10;99.90
55004;DHT22;40900;52.710;6.438;2023-04-23T00:14:49;9.00;99.90
55004;DHT22;40900;52.710;6.438;2023-04-23T00:17:15;9.00;99.90
55004;DHT22;40900;52.710;6.438;2023-04-23T00:19:40;9.00;99.90
55004;DHT22;40900;52.710;6.438;2023-04-23T00:22:06;9.00;99.90
55004;DHT22;40900;52.710;6.438;2023-04-23T00:24:32;8.90;99.90
55004;DHT22;40900;52.710;6.438;2023-04-23T00:27:01;8.90;99.90
55004;DHT22;40900;52.710;6.438;2023-04-23T00:29:26;8.90;99.90
55004;DHT22;40900;52.710;6.438;2023-04-23T00:31:52;8.90;99.90
55004;DHT22;40900;52.710;6.438;2023-04-23T00:34:18;9.00;99.90
55004;DHT22;40900;52.710;6.438;2023-04-23T00:36:43;9.00;99.90
55004;DHT22;40900;52.710;6.438;2023-04-23T00:39:09;9.00;99.90
55004;DHT22;40900;52.710;6.438;2023-04-23T00:41:36;9.00;99.90
55004;DHT22;40900;52.710;6.438;2023-04-23T00:44:01;9.00;99.90
55004;DHT22;40900;52.710;6.438;2023-04-23T00:46:27;9.00;99.90
55004;DHT22;40900;52.710;6.438;2023-04-23T00:48:53;9.00;99.90
55004;DHT22;40900;52.710;6.438;2023-04-23T00:51:21;9.00;99.90
55004;DHT22;40900;52.710;6.438;2023-04-23T00:53:48;9.00;99.90
55004;DHT22;40900;52.710;6.438;2023-04-23T00:56:14;8.90;99.90
55004;DHT22;40900;52.710;6.438;2023-04-23T00:58:40;8.90;99.90
55004;DHT22;40900;52.710;6.438;2023-04-23T01:01:06;8.90;99.90
55004;DHT22;40900;52.710;6.438;2023-04-23T01:03:33;8.80;99.90
55004;DHT22;40900;52.710;6.438;2023-04-23T01:06:01;8.80;99.90
55004;DHT22;40900;52.710;6.438;2023-04-23T01:08:27;8.80;99.90
55004;DHT22;40900;52.710;6.438;2023-04-23T01:10:53;8.80;99.90
55004;DHT22;40900;52.710;6.438;2023-04-23T01:13:19;8.80;99.90
55004;DHT22;40900;52.710;6.438;2023-04-23T01:15:46;8.90;99.90
55004;DHT22;40900;52.710;6.438;2023-04-23T01:18:13;8.90;99.90
55004;DHT22;40900;52.710;6.438;2023-04-23T01:20:39;8.90;99.90
55004;DHT22;40900;52.710;6.438;2023-04-23T01:23:05;8.90;99.90
55004;DHT22;40900;52.710;6.438;2023-04-23T01:25:31;9.00;99.90
55004;DHT22;40900;52.710;6.438;2023-04-23T01:27:57;9.00;99.90
55004;DHT22;40900;52.710;6.438;2023-04-23T01:30:25;9.00;99.90
55004;DHT22;40900;52.710;6.438;2023-04-23T01:32:53;9.00;99.90
55004;DHT22;40900;52.710;6.438;2023-04-23T01:35:19;8.90;99.90
55004;DHT22;40900;52.710;6.438;2023-04-23T01:37:45;8.90;99.90
55004;DHT22;40900;52.710;6.438;2023-04-23T01:40:11;9.00;99.90
55004;DHT22;40900;52.710;6.438;2023-04-23T01:42:37;8.90;99.90
55004;DHT22;40900;52.710;6.438;2023-04-23T01:45:03;8.90;99.90
55004;DHT22;40900;52.710;6.438;2023-04-23T01:47:33;8.90;99.90
55004;DHT22;40900;52.710;6.438;2023-04-23T01:49:59;9.00;99.90
55004;DHT22;40900;52.710;6.438;2023-04-23T01:52:24;9.00;99.90
55004;DHT22;40900;52.710;6.438;2023-04-23T01:54:50;9.00;99.90
55004;DHT22;40900;52.710;6.438;2023-04-23T01:57:17;9.00;99.90
55004;DHT22;40900;52.710;6.438;2023-04-23T01:59:49;9.00;99.90
55004;DHT22;40900;52.710;6.438;2023-04-23T02:02:15;9.00;99.90
55004;DHT22;40900;52.710;6.438;2023-04-23T02:04:43;9.00;99.90
55004;DHT22;40900;52.710;6.438;2023-04-23T02:07:09;9.00;99.90
55004;DHT22;40900;52.710;6.438;2023-04-23T02:09:35;9.00;99.90
55004;DHT22;40900;52.710;6.438;2023-04-23T02:12:01;8.90;99.90
55004;DHT22;40900;52.710;6.438;2023-04-23T02:14:27;9.00;99.90
55004;DHT22;40900;52.710;6.438;2023-04-23T02:16:53;8.90;99.90
55004;DHT22;40900;52.710;6.438;2023-04-23T02:19:20;8.90;99.90
55004;DHT22;40900;52.710;6.438;2023-04-23T02:21:46;8.90;99.90
55004;DHT22;40900;52.710;6.438;2023-04-23T02:24:12;8.90;99.90
55004;DHT22;40900;52.710;6.438;2023-04-23T02:26:37;8.90;99.90
55004;DHT22;40900;52.710;6.438;2023-04-23T02:29:03;8.90;99.90
55004;DHT22;40900;52.710;6.438;2023-04-23T02:31:29;8.90;99.90
55004;DHT22;40900;52.710;6.438;2023-04-23T02:33:55;8.80;99.90
55004;DHT22;40900;52.710;6.438;2023-04-23T02:36:20;8.80;99.90
55004;DHT22;40900;52.710;6.438;2023-04-23T02:38:46;8.80;99.90
55004;DHT22;40900;52.710;6.438;2023-04-23T02:41:13;8.80;99.90
55004;DHT22;40900;52.710;6.438;2023-04-23T02:43:39;8.70;99.90
55004;DHT22;40900;52.710;6.438;2023-04-23T02:46:05;8.80;99.90
55004;DHT22;40900;52.710;6.438;2023-04-23T02:48:38;8.70;99.90
55004;DHT22;40900;52.710;6.438;2023-04-23T02:51:05;8.70;99.90
55004;DHT22;40900;52.710;6.438;2023-04-23T02:53:31;8.80;99.90
55004;DHT22;40900;52.710;6.438;2023-04-23T02:55:57;8.70;99.90
55004;DHT22;40900;52.710;6.438;2023-04-23T02:58:23;8.70;99.90
55004;DHT22;40900;52.710;6.438;2023-04-23T03:00:49;8.70;99.90
55004;DHT22;40900;52.710;6.438;2023-04-23T03:03:15;8.70;99.90
55004;DHT22;40900;52.710;6.438;2023-04-23T03:05:41;8.70;99.90
55004;DHT22;40900;52.710;6.438;2023-04-23T03:08:06;8.70;99.90
55004;DHT22;40900;52.710;6.438;2023-04-23T03:10:32;8.50;99.90
55004;DHT22;40900;52.710;6.438;2023-04-23T03:12:58;8.60;99.90
55004;DHT22;40900;52.710;6.438;2023-04-23T03:15:24;8.60;99.90
55004;DHT22;40900;52.710;6.438;2023-04-23T03:17:51;8.60;99.90
55004;DHT22;40900;52.710;6.438;2023-04-23T03:20:18;8.60;99.90
55004;DHT22;40900;52.710;6.438;2023-04-23T03:22:44;8.60;99.90
55004;DHT22;40900;52.710;6.438;2023-04-23T03:25:10;8.60;99.90
55004;DHT22;40900;52.710;6.438;2023-04-23T03:27:38;8.60;99.90
55004;DHT22;40900;52.710;6.438;2023-04-23T03:30:06;8.60;99.90
55004;DHT22;40900;52.710;6.438;2023-04-23T03:32:33;8.60;99.90
55004;DHT22;40900;52.710;6.438;2023-04-23T03:34:59;8.60;99.90
55004;DHT22;40900;52.710;6.438;2023-04-23T03:37:26;8.60;99.90
55004;DHT22;40900;52.710;6.438;2023-04-23T03:39:52;8.50;99.90
55004;DHT22;40900;52.710;6.438;2023-04-23T03:42:18;8.50;99.90
55004;DHT22;40900;52.710;6.438;2023-04-23T03:44:43;8.50;99.90
55004;DHT22;40900;52.710;6.438;2023-04-23T03:47:09;8.50;99.90
55004;DHT22;40900;52.710;6.438;2023-04-23T03:49:35;8.60;99.90
55004;DHT22;40900;52.710;6.438;2023-04-23T03:52:01;8.60;99.90
55004;DHT22;40900;52.710;6.438;2023-04-23T03:54:27;8.50;99.90
55004;DHT22;40900;52.710;6.438;2023-04-23T03:56:53;8.50;99.90
55004;DHT22;40900;52.710;6.438;2023-04-23T03:59:19;8.50;99.90
55004;DHT22;40900;52.710;6.438;2023-04-23T04:01:46;8.50;99.90
55004;DHT22;40900;52.710;6.438;2023-04-23T04:04:13;8.50;99.90
55004;DHT22;40900;52.710;6.438;2023-04-23T04:06:40;8.60;99.90
55004;DHT22;40900;52.710;6.438;2023-04-23T04:09:05;8.50;99.90
55004;DHT22;40900;52.710;6.438;2023-04-23T04:11:34;8.50;99.90
55004;DHT22;40900;52.710;6.438;2023-04-23T04:14:01;8.50;99.90
55004;DHT22;40900;52.710;6.438;2023-04-23T04:16:26;8.50;99.90
55004;DHT22;40900;52.710;6.438;2023-04-23T04:18:52;8.40;99.90
55004;DHT22;40900;52.710;6.438;2023-04-23T04:21:18;8.50;99.90
55004;DHT22;40900;52.710;6.438;2023-04-23T04:23:44;8.50;99.90
55004;DHT22;40900;52.710;6.438;2023-04-23T04:26:10;8.50;99.90
55004;DHT22;40900;52.710;6.438;2023-04-23T04:28:36;8.50;99.90
55004;DHT22;40900;52.710;6.438;2023-04-23T04:31:03;8.50;99.90
55004;DHT22;40900;52.710;6.438;2023-04-23T04:33:30;8.50;99.90
55004;DHT22;40900;52.710;6.438;2023-04-23T04:35:56;8.50;99.90
55004;DHT22;40900;52.710;6.438;2023-04-23T04:38:21;8.50;99.90
55004;DHT22;40900;52.710;6.438;2023-04-23T04:40:47;8.60;99.90
55004;DHT22;40900;52.710;6.438;2023-04-23T04:43:13;8.50;99.90
55004;DHT22;40900;52.710;6.438;2023-04-23T04:45:41;8.60;99.90
55004;DHT22;40900;52.710;6.438;2023-04-23T04:48:07;8.60;99.90
55004;DHT22;40900;52.710;6.438;2023-04-23T04:50:33;8.60;99.90
55004;DHT22;40900;52.710;6.438;2023-04-23T04:52:59;8.60;99.90
55004;DHT22;40900;52.710;6.438;2023-04-23T04:55:24;8.60;99.90
55004;DHT22;40900;52.710;6.438;2023-04-23T04:57:52;8.60;99.90
55004;DHT22;40900;52.710;6.438;2023-04-23T05:00:23;8.70;99.90
55004;DHT22;40900;52.710;6.438;2023-04-23T05:02:50;8.70;99.90
55004;DHT22;40900;52.710;6.438;2023-04-23T05:05:17;8.70;99.90
55004;DHT22;40900;52.710;6.438;2023-04-23T05:07:43;8.70;99.90
55004;DHT22;40900;52.710;6.438;2023-04-23T05:10:09;8.70;99.90
55004;DHT22;40900;52.710;6.438;2023-04-23T05:12:35;8.70;99.90
55004;DHT22;40900;52.710;6.438;2023-04-23T05:15:01;8.70;99.90
55004;DHT22;40900;52.710;6.438;2023-04-23T05:17:28;8.70;99.90
55004;DHT22;40900;52.710;6.438;2023-04-23T05:19:54;8.70;99.90
55004;DHT22;40900;52.710;6.438;2023-04-23T05:22:20;8.70;99.90
55004;DHT22;40900;52.710;6.438;2023-04-23T05:24:46;8.70;99.90
55004;DHT22;40900;52.710;6.438;2023-04-23T05:27:12;8.80;99.90
55004;DHT22;40900;52.710;6.438;2023-04-23T05:29:37;8.80;99.90
55004;DHT22;40900;52.710;6.438;2023-04-23T05:32:03;8.80;99.90
55004;DHT22;40900;52.710;6.438;2023-04-23T05:34:29;8.80;99.90
55004;DHT22;40900;52.710;6.438;2023-04-23T05:36:54;8.80;99.90
55004;DHT22;40900;52.710;6.438;2023-04-23T05:39:20;8.90;99.90
55004;DHT22;40900;52.710;6.438;2023-04-23T05:41:46;8.90;99.90
55004;DHT22;40900;52.710;6.438;2023-04-23T05:44:11;8.90;99.90
55004;DHT22;40900;52.710;6.438;2023-04-23T05:46:37;8.90;99.90
55004;DHT22;40900;52.710;6.438;2023-04-23T05:49:03;9.10;99.90
55004;DHT22;40900;52.710;6.438;2023-04-23T05:51:28;9.10;99.90
55004;DHT22;40900;52.710;6.438;2023-04-23T05:53:54;9.20;99.90
55004;DHT22;40900;52.710;6.438;2023-04-23T05:56:20;9.20;99.90
55004;DHT22;40900;52.710;6.438;2023-04-23T05:58:46;9.30;99.90
55004;DHT22;40900;52.710;6.438;2023-04-23T06:01:11;9.40;99.90
55004;DHT22;40900;52.710;6.438;2023-04-23T06:03:37;9.40;99.90
55004;DHT22;40900;52.710;6.438;2023-04-23T06:06:04;9.40;99.90
55004;DHT22;40900;52.710;6.438;2023-04-23T06:08:34;9.50;99.90
55004;DHT22;40900;52.710;6.438;2023-04-23T06:10:59;9.50;99.90
55004;DHT22;40900;52.710;6.438;2023-04-23T06:13:26;9.50;99.90
55004;DHT22;40900;52.710;6.438;2023-04-23T06:15:52;9.60;99.90
55004;DHT22;40900;52.710;6.438;2023-04-23T06:18:18;9.60;99.90
55004;DHT22;40900;52.710;6.438;2023-04-23T06:20:44;9.70;99.90
55004;DHT22;40900;52.710;6.438;2023-04-23T06:23:11;9.70;99.90
55004;DHT22;40900;52.710;6.438;2023-04-23T06:25:37;9.70;99.90
55004;DHT22;40900;52.710;6.438;2023-04-23T06:28:03;9.80;99.90
55004;DHT22;40900;52.710;6.438;2023-04-23T06:30:28;9.90;99.90
55004;DHT22;40900;52.710;6.438;2023-04-23T06:32:54;9.90;99.90
55004;DHT22;40900;52.710;6.438;2023-04-23T06:35:20;10.00;99.90
55004;DHT22;40900;52.710;6.438;2023-04-23T06:37:46;10.10;99.90
55004;DHT22;40900;52.710;6.438;2023-04-23T06:40:11;10.20;99.90
55004;DHT22;40900;52.710;6.438;2023-04-23T06:42:37;10.20;99.90
55004;DHT22;40900;52.710;6.438;2023-04-23T06:45:04;10.30;99.90
55004;DHT22;40900;52.710;6.438;2023-04-23T06:47:30;10.40;99.90
55004;DHT22;40900;52.710;6.438;2023-04-23T06:49:57;10.50;99.90
55004;DHT22;40900;52.710;6.438;2023-04-23T06:52:24;10.60;99.90
55004;DHT22;40900;52.710;6.438;2023-04-23T06:54:49;10.70;99.90
55004;DHT22;40900;52.710;6.438;2023-04-23T06:57:16;10.70;99.90
55004;DHT22;40900;52.710;6.438;2023-04-23T06:59:42;10.90;99.90
55004;DHT22;40900;52.710;6.438;2023-04-23T07:02:07;10.90;99.90
55004;DHT22;40900;52.710;6.438;2023-04-23T07:04:33;10.90;99.90
55004;DHT22;40900;52.710;6.438;2023-04-23T07:06:59;11.00;99.90
55004;DHT22;40900;52.710;6.438;2023-04-23T07:09:26;11.00;99.90
55004;DHT22;40900;52.710;6.438;2023-04-23T07:11:52;11.20;99.90
55004;DHT22;40900;52.710;6.438;2023-04-23T07:14:17;11.20;99.90
55004;DHT22;40900;52.710;6.438;2023-04-23T07:16:43;11.20;99.90
55004;DHT22;40900;52.710;6.438;2023-04-23T07:19:09;11.30;99.90
55004;DHT22;40900;52.710;6.438;2023-04-23T07:21:34;11.40;99.90
55004;DHT22;40900;52.710;6.438;2023-04-23T07:24:00;11.50;99.90
55004;DHT22;40900;52.710;6.438;2023-04-23T07:26:32;11.60;99.90
55004;DHT22;40900;52.710;6.438;2023-04-23T07:28:58;11.60;99.90
55004;DHT22;40900;52.710;6.438;2023-04-23T07:31:24;11.70;99.90
55004;DHT22;40900;52.710;6.438;2023-04-23T07:33:49;11.80;99.90
55004;DHT22;40900;52.710;6.438;2023-04-23T07:36:15;11.90;99.90
55004;DHT22;40900;52.710;6.438;2023-04-23T07:38:42;12.10;99.90
55004;DHT22;40900;52.710;6.438;2023-04-23T07:41:07;12.30;99.90
55004;DHT22;40900;52.710;6.438;2023-04-23T07:43:33;12.50;99.90
55004;DHT22;40900;52.710;6.438;2023-04-23T07:45:59;12.60;99.90
55004;DHT22;40900;52.710;6.438;2023-04-23T07:48:24;12.70;99.90
55004;DHT22;40900;52.710;6.438;2023-04-23T07:50:50;12.90;99.90
55004;DHT22;40900;52.710;6.438;2023-04-23T07:53:16;13.10;99.90
55004;DHT22;40900;52.710;6.438;2023-04-23T07:55:41;13.30;99.90
55004;DHT22;40900;52.710;6.438;2023-04-23T07:58:07;13.60;99.90
55004;DHT22;40900;52.710;6.438;2023-04-23T08:00:33;14.60;99.90
55004;DHT22;40900;52.710;6.438;2023-04-23T08:03:00;14.70;99.90
55004;DHT22;40900;52.710;6.438;2023-04-23T08:05:25;15.30;99.90
55004;DHT22;40900;52.710;6.438;2023-04-23T08:07:51;16.00;99.90
55004;DHT22;40900;52.710;6.438;2023-04-23T08:10:17;16.60;99.90
55004;DHT22;40900;52.710;6.438;2023-04-23T08:12:43;16.80;99.90
55004;DHT22;40900;52.710;6.438;2023-04-23T08:15:09;17.00;99.90
55004;DHT22;40900;52.710;6.438;2023-04-23T08:17:35;17.20;99.90
55004;DHT22;40900;52.710;6.438;2023-04-23T08:20:02;17.70;99.90
55004;DHT22;40900;52.710;6.438;2023-04-23T08:22:29;18.10;99.90
55004;DHT22;40900;52.710;6.438;2023-04-23T08:24:55;18.30;99.90
55004;DHT22;40900;52.710;6.438;2023-04-23T08:27:20;18.40;99.90
55004;DHT22;40900;52.710;6.438;2023-04-23T08:29:47;18.70;99.90
55004;DHT22;40900;52.710;6.438;2023-04-23T08:32:12;19.10;99.90
55004;DHT22;40900;52.710;6.438;2023-04-23T08:34:38;18.90;99.90
55004;DHT22;40900;52.710;6.438;2023-04-23T08:37:04;19.20;99.90
55004;DHT22;40900;52.710;6.438;2023-04-23T08:42:04;18.00;99.90
55004;DHT22;40900;52.710;6.438;2023-04-23T08:44:32;19.70;99.90
55004;DHT22;40900;52.710;6.438;2023-04-23T08:47:00;19.50;99.90
55004;DHT22;40900;52.710;6.438;2023-04-23T08:49:32;19.50;99.90
55004;DHT22;40900;52.710;6.438;2023-04-23T08:52:08;19.90;99.90
55004;DHT22;40900;52.710;6.438;2023-04-23T08:54:36;19.60;99.90
55004;DHT22;40900;52.710;6.438;2023-04-23T08:57:06;19.40;99.90
55004;DHT22;40900;52.710;6.438;2023-04-23T08:59:34;19.00;99.90
55004;DHT22;40900;52.710;6.438;2023-04-23T09:02:00;19.60;99.90
55004;DHT22;40900;52.710;6.438;2023-04-23T09:04:33;20.00;99.90
55004;DHT22;40900;52.710;6.438;2023-04-23T09:06:59;19.70;99.90
55004;DHT22;40900;52.710;6.438;2023-04-23T09:09:28;19.10;99.90
55004;DHT22;40900;52.710;6.438;2023-04-23T09:11:55;19.80;99.90
55004;DHT22;40900;52.710;6.438;2023-04-23T09:14:22;20.40;99.90
55004;DHT22;40900;52.710;6.438;2023-04-23T09:16:50;20.80;99.90
55004;DHT22;40900;52.710;6.438;2023-04-23T09:19:17;21.00;99.90
55004;DHT22;40900;52.710;6.438;2023-04-23T09:21:46;21.50;99.90
55004;DHT22;40900;52.710;6.438;2023-04-23T09:24:12;21.70;99.90
55004;DHT22;40900;52.710;6.438;2023-04-23T09:26:47;21.30;99.90
55004;DHT22;40900;52.710;6.438;2023-04-23T09:29:20;21.40;99.90
55004;DHT22;40900;52.710;6.438;2023-04-23T09:31:51;21.30;99.90
55004;DHT22;40900;52.710;6.438;2023-04-23T09:34:22;21.40;99.90
55004;DHT22;40900;52.710;6.438;2023-04-23T09:36:50;21.90;99.90
55004;DHT22;40900;52.710;6.438;2023-04-23T09:39:18;21.30;99.90
55004;DHT22;40900;52.710;6.438;2023-04-23T09:41:44;20.30;99.90
55004;DHT22;40900;52.710;6.438;2023-04-23T09:44:11;20.50;99.90
55004;DHT22;40900;52.710;6.438;2023-04-23T09:46:44;20.80;99.90
55004;DHT22;40900;52.710;6.438;2023-04-23T09:49:11;20.80;99.90
55004;DHT22;40900;52.710;6.438;2023-04-23T09:51:42;21.20;99.90
55004;DHT22;40900;52.710;6.438;2023-04-23T09:54:21;21.70;99.90
55004;DHT22;40900;52.710;6.438;2023-04-23T09:56:53;22.40;99.90
55004;DHT22;40900;52.710;6.438;2023-04-23T09:59:27;21.70;99.90
55004;DHT22;40900;52.710;6.438;2023-04-23T10:01:53;21.00;99.90
55004;DHT22;40900;52.710;6.438;2023-04-23T10:04:21;20.60;99.90
55004;DHT22;40900;52.710;6.438;2023-04-23T10:06:54;20.00;99.90
55004;DHT22;40900;52.710;6.438;2023-04-23T10:09:21;19.90;99.90
55004;DHT22;40900;52.710;6.438;2023-04-23T10:11:53;19.40;99.90
55004;DHT22;40900;52.710;6.438;2023-04-23T10:14:24;19.80;99.90
55004;DHT22;40900;52.710;6.438;2023-04-23T10:16:51;20.40;99.90
55004;DHT22;40900;52.710;6.438;2023-04-23T10:19:22;20.60;99.90
55004;DHT22;40900;52.710;6.438;2023-04-23T10:21:53;20.50;99.90
55004;DHT22;40900;52.710;6.438;2023-04-23T10:24:23;20.50;99.90
55004;DHT22;40900;52.710;6.438;2023-04-23T10:26:51;20.20;99.90
55004;DHT22;40900;52.710;6.438;2023-04-23T10:29:20;20.70;99.90
55004;DHT22;40900;52.710;6.438;2023-04-23T10:31:48;20.60;99.90
55004;DHT22;40900;52.710;6.438;2023-04-23T10:34:16;20.70;99.90
55004;DHT22;40900;52.710;6.438;2023-04-23T10:36:42;20.70;99.90
55004;DHT22;40900;52.710;6.438;2023-04-23T10:39:08;21.00;99.90
55004;DHT22;40900;52.710;6.438;2023-04-23T10:41:36;21.60;99.90
55004;DHT22;40900;52.710;6.438;2023-04-23T10:44:04;22.40;99.90
55004;DHT22;40900;52.710;6.438;2023-04-23T10:46:32;22.50;99.90
55004;DHT22;40900;52.710;6.438;2023-04-23T10:49:10;22.10;99.70
55004;DHT22;40900;52.710;6.438;2023-04-23T10:51:39;21.70;99.70
55004;DHT22;40900;52.710;6.438;2023-04-23T10:54:07;21.50;99.90
55004;DHT22;40900;52.710;6.438;2023-04-23T10:56:37;21.20;99.90
55004;DHT22;40900;52.710;6.438;2023-04-23T10:59:17;20.80;99.90
55004;DHT22;40900;52.710;6.438;2023-04-23T11:01:48;20.50;99.90
55004;DHT22;40900;52.710;6.438;2023-04-23T11:04:23;20.60;99.90
55004;DHT22;40900;52.710;6.438;2023-04-23T11:06:53;21.10;99.90
55004;DHT22;40900;52.710;6.438;2023-04-23T11:09:37;21.20;99.60
55004;DHT22;40900;52.710;6.438;2023-04-23T11:12:50;21.40;98.20
55004;DHT22;40900;52.710;6.438;2023-04-23T11:14:53;21.50;99.00
55004;DHT22;40900;52.710;6.438;2023-04-23T11:20:06;22.20;98.70
55004;DHT22;40900;52.710;6.438;2023-04-23T11:22:55;21.70;99.00
55004;DHT22;40900;52.710;6.438;2023-04-23T11:25:23;21.60;99.30
55004;DHT22;40900;52.710;6.438;2023-04-23T11:27:51;21.20;99.30
55004;DHT22;40900;52.710;6.438;2023-04-23T11:30:19;21.30;99.50
55004;DHT22;40900;52.710;6.438;2023-04-23T11:32:47;20.80;99.40
55004;DHT22;40900;52.710;6.438;2023-04-23T11:35:17;20.20;99.70
55004;DHT22;40900;52.710;6.438;2023-04-23T11:37:44;19.90;99.90
55004;DHT22;40900;52.710;6.438;2023-04-23T11:40:11;20.10;99.90
55004;DHT22;40900;52.710;6.438;2023-04-23T11:42:45;20.10;99.90
55004;DHT22;40900;52.710;6.438;2023-04-23T11:45:16;20.20;99.90
55004;DHT22;40900;52.710;6.438;2023-04-23T11:47:43;20.20;99.90
55004;DHT22;40900;52.710;6.438;2023-04-23T11:50:09;20.10;99.90
55004;DHT22;40900;52.710;6.438;2023-04-23T11:52:35;20.00;99.90
55004;DHT22;40900;52.710;6.438;2023-04-23T11:55:07;20.00;99.90
55004;DHT22;40900;52.710;6.438;2023-04-23T11:57:40;20.00;99.90
55004;DHT22;40900;52.710;6.438;2023-04-23T12:00:13;20.00;99.90
55004;DHT22;40900;52.710;6.438;2023-04-23T12:03:00;19.80;99.90
55004;DHT22;40900;52.710;6.438;2023-04-23T12:05:34;20.00;99.00
55004;DHT22;40900;52.710;6.438;2023-04-23T12:11:04;19.60;99.80
55004;DHT22;40900;52.710;6.438;2023-04-23T12:13:31;19.80;99.70
55004;DHT22;40900;52.710;6.438;2023-04-23T12:16:02;19.70;99.90
55004;DHT22;40900;52.710;6.438;2023-04-23T12:18:38;19.50;99.90
55004;DHT22;40900;52.710;6.438;2023-04-23T12:21:08;19.50;99.90
55004;DHT22;40900;52.710;6.438;2023-04-23T12:23:38;19.40;99.90
55004;DHT22;40900;52.710;6.438;2023-04-23T12:26:08;19.20;99.90
55004;DHT22;40900;52.710;6.438;2023-04-23T12:28:54;19.30;99.90
55004;DHT22;40900;52.710;6.438;2023-04-23T12:31:20;19.20;99.90
55004;DHT22;40900;52.710;6.438;2023-04-23T12:33:46;19.10;99.90
55004;DHT22;40900;52.710;6.438;2023-04-23T12:36:14;18.90;99.90
55004;DHT22;40900;52.710;6.438;2023-04-23T12:38:41;18.90;99.90
55004;DHT22;40900;52.710;6.438;2023-04-23T12:41:07;18.80;99.90
55004;DHT22;40900;52.710;6.438;2023-04-23T12:43:33;18.90;99.90
55004;DHT22;40900;52.710;6.438;2023-04-23T12:45:58;18.90;99.90
55004;DHT22;40900;52.710;6.438;2023-04-23T12:48:24;18.80;99.90
55004;DHT22;40900;52.710;6.438;2023-04-23T12:50:50;19.00;99.90
55004;DHT22;40900;52.710;6.438;2023-04-23T12:53:17;18.90;99.90
55004;DHT22;40900;52.710;6.438;2023-04-23T12:55:43;19.10;99.90
55004;DHT22;40900;52.710;6.438;2023-04-23T12:58:10;19.30;99.90
55004;DHT22;40900;52.710;6.438;2023-04-23T13:00:35;19.40;99.90
55004;DHT22;40900;52.710;6.438;2023-04-23T13:03:01;19.40;99.90
55004;DHT22;40900;52.710;6.438;2023-04-23T13:05:28;19.60;99.90
55004;DHT22;40900;52.710;6.438;2023-04-23T13:07:54;19.70;99.60
55004;DHT22;40900;52.710;6.438;2023-04-23T13:10:20;19.70;99.40
55004;DHT22;40900;52.710;6.438;2023-04-23T13:12:46;19.40;99.60
55004;DHT22;40900;52.710;6.438;2023-04-23T13:15:11;19.60;99.30
55004;DHT22;40900;52.710;6.438;2023-04-23T13:17:37;19.60;98.40
55004;DHT22;40900;52.710;6.438;2023-04-23T13:20:03;19.50;98.20
55004;DHT22;40900;52.710;6.438;2023-04-23T13:22:29;19.50;97.90
55004;DHT22;40900;52.710;6.438;2023-04-23T13:24:56;19.30;98.10
55004;DHT22;40900;52.710;6.438;2023-04-23T13:27:27;19.20;98.80
55004;DHT22;40900;52.710;6.438;2023-04-23T13:29:53;19.20;99.40
55004;DHT22;40900;52.710;6.438;2023-04-23T13:32:19;19.20;99.00
55004;DHT22;40900;52.710;6.438;2023-04-23T13:34:45;19.20;99.50
55004;DHT22;40900;52.710;6.438;2023-04-23T13:37:10;19.30;99.80
55004;DHT22;40900;52.710;6.438;2023-04-23T13:39:37;19.10;99.90
55004;DHT22;40900;52.710;6.438;2023-04-23T13:42:03;19.20;99.90
55004;DHT22;40900;52.710;6.438;2023-04-23T13:44:32;19.20;99.90
55004;DHT22;40900;52.710;6.438;2023-04-23T13:46:57;19.10;99.60
55004;DHT22;40900;52.710;6.438;2023-04-23T13:49:27;19.10;99.90
55004;DHT22;40900;52.710;6.438;2023-04-23T13:51:53;19.20;99.90
55004;DHT22;40900;52.710;6.438;2023-04-23T13:54:23;19.30;99.90
55004;DHT22;40900;52.710;6.438;2023-04-23T13:56:55;19.40;99.90
55004;DHT22;40900;52.710;6.438;2023-04-23T13:59:20;19.50;99.90
55004;DHT22;40900;52.710;6.438;2023-04-23T14:01:47;19.60;99.90
55004;DHT22;40900;52.710;6.438;2023-04-23T14:04:14;19.60;99.90
55004;DHT22;40900;52.710;6.438;2023-04-23T14:06:41;19.80;99.70
55004;DHT22;40900;52.710;6.438;2023-04-23T14:09:07;19.90;99.90
55004;DHT22;40900;52.710;6.438;2023-04-23T14:11:32;19.90;99.90
55004;DHT22;40900;52.710;6.438;2023-04-23T14:13:58;19.80;99.40
55004;DHT22;40900;52.710;6.438;2023-04-23T14:16:25;19.80;99.70
55004;DHT22;40900;52.710;6.438;2023-04-23T14:18:51;19.60;99.20
55004;DHT22;40900;52.710;6.438;2023-04-23T14:21:17;19.50;98.20
55004;DHT22;40900;52.710;6.438;2023-04-23T14:26:41;19.20;98.70
55004;DHT22;40900;52.710;6.438;2023-04-23T14:29:22;19.10;99.50
55004;DHT22;40900;52.710;6.438;2023-04-23T14:31:49;19.00;98.70
55004;DHT22;40900;52.710;6.438;2023-04-23T14:34:15;19.00;98.80
55004;DHT22;40900;52.710;6.438;2023-04-23T14:36:41;18.90;99.20
55004;DHT22;40900;52.710;6.438;2023-04-23T14:39:06;18.90;99.00
55004;DHT22;40900;52.710;6.438;2023-04-23T14:41:33;18.80;99.00
55004;DHT22;40900;52.710;6.438;2023-04-23T14:44:02;18.90;99.40
55004;DHT22;40900;52.710;6.438;2023-04-23T14:46:28;18.90;99.60
55004;DHT22;40900;52.710;6.438;2023-04-23T14:48:54;18.80;99.10
55004;DHT22;40900;52.710;6.438;2023-04-23T14:51:20;18.90;99.30
55004;DHT22;40900;52.710;6.438;2023-04-23T14:53:46;18.70;99.10
55004;DHT22;40900;52.710;6.438;2023-04-23T14:56:11;18.60;99.50
55004;DHT22;40900;52.710;6.438;2023-04-23T14:58:37;18.70;99.90
55004;DHT22;40900;52.710;6.438;2023-04-23T15:01:03;18.60;99.90
55004;DHT22;40900;52.710;6.438;2023-04-23T15:03:29;18.70;99.90
55004;DHT22;40900;52.710;6.438;2023-04-23T15:05:55;18.70;99.90
55004;DHT22;40900;52.710;6.438;2023-04-23T15:08:20;18.70;99.90
55004;DHT22;40900;52.710;6.438;2023-04-23T15:10:46;18.70;99.90
55004;DHT22;40900;52.710;6.438;2023-04-23T15:15:54;18.70;99.90
55004;DHT22;40900;52.710;6.438;2023-04-23T15:18:20;18.70;99.90
55004;DHT22;40900;52.710;6.438;2023-04-23T15:20:45;18.70;99.90
55004;DHT22;40900;52.710;6.438;2023-04-23T15:23:11;18.70;99.90
55004;DHT22;40900;52.710;6.438;2023-04-23T15:25:37;18.70;99.90
55004;DHT22;40900;52.710;6.438;2023-04-23T15:28:04;18.60;99.90
55004;DHT22;40900;52.710;6.438;2023-04-23T15:30:30;18.50;99.90
55004;DHT22;40900;52.710;6.438;2023-04-23T15:32:56;18.50;99.90
55004;DHT22;40900;52.710;6.438;2023-04-23T15:35:26;18.50;99.90
55004;DHT22;40900;52.710;6.438;2023-04-23T15:37:55;18.50;99.90
55004;DHT22;40900;52.710;6.438;2023-04-23T15:40:22;18.60;99.90
55004;DHT22;40900;52.710;6.438;2023-04-23T15:42:47;18.60;99.90
55004;DHT22;40900;52.710;6.438;2023-04-23T15:45:14;18.60;99.90
55004;DHT22;40900;52.710;6.438;2023-04-23T15:47:41;18.60;99.90
55004;DHT22;40900;52.710;6.438;2023-04-23T15:50:08;18.50;99.90